sensor_id;sensor_type;location;lat;lon;timestamp;P1;durP1;ratioP1;P2;durP2;ratioP2
52434;SDS011;38354;52.892;6.148;2023-06-19T03:01:28;10.48;;;8.10;;
52434;SDS011;38354;52.892;6.148;2023-06-19T03:03:54;11.32;;;7.68;;
52434;SDS011;38354;52.892;6.148;2023-06-19T03:06:19;8.38;;;7.47;;
52434;SDS011;38354;52.892;6.148;2023-06-19T03:08:45;11.88;;;8.02;;
52434;SDS011;38354;52.892;6.148;2023-06-19T03:11:11;10.25;;;7.53;;
52434;SDS011;38354;52.892;6.148;2023-06-19T03:13:48;11.77;;;7.70;;
52434;SDS011;38354;52.892;6.148;2023-06-19T03:16:16;11.90;;;8.05;;
52434;SDS011;38354;52.892;6.148;2023-06-19T03:18:44;11.00;;;7.68;;
52434;SDS011;38354;52.892;6.148;2023-06-19T03:21:11;11.50;;;7.38;;
52434;SDS011;38354;52.892;6.148;2023-06-19T03:23:37;9.32;;;7.47;;
52434;SDS011;38354;52.892;6.148;2023-06-19T03:26:03;8.55;;;7.00;;
52434;SDS011;38354;52.892;6.148;2023-06-19T03:28:28;9.55;;;6.68;;
52434;SDS011;38354;52.892;6.148;2023-06-19T03:30:54;10.98;;;6.70;;
52434;SDS011;38354;52.892;6.148;2023-06-19T03:33:20;12.10;;;6.93;;
52434;SDS011;38354;52.892;6.148;2023-06-19T03:35:46;11.27;;;7.20;;
52434;SDS011;38354;52.892;6.148;2023-06-19T03:38:12;9.15;;;5.85;;
52434;SDS011;38354;52.892;6.148;2023-06-19T03:40:37;8.48;;;5.88;;
52434;SDS011;38354;52.892;6.148;2023-06-19T03:43:03;8.20;;;5.30;;
52434;SDS011;38354;52.892;6.148;2023-06-19T03:45:28;6.70;;;5.25;;
52434;SDS011;38354;52.892;6.148;2023-06-19T03:47:54;6.22;;;5.07;;
52434;SDS011;38354;52.892;6.148;2023-06-19T03:50:20;5.78;;;4.35;;
52434;SDS011;38354;52.892;6.148;2023-06-19T03:52:45;5.43;;;3.97;;
52434;SDS011;38354;52.892;6.148;2023-06-19T03:55:11;5.82;;;3.88;;
52434;SDS011;38354;52.892;6.148;2023-06-19T03:57:37;6.20;;;4.07;;
52434;SDS011;38354;52.892;6.148;2023-06-19T04:00:02;6.63;;;3.97;;
52434;SDS011;38354;52.892;6.148;2023-06-19T04:02:32;8.70;;;3.60;;
52434;SDS011;38354;52.892;6.148;2023-06-19T04:05:01;5.35;;;3.53;;
52434;SDS011;38354;52.892;6.148;2023-06-19T04:07:27;5.00;;;3.60;;
52434;SDS011;38354;52.892;6.148;2023-06-19T04:09:53;6.78;;;4.43;;
52434;SDS011;38354;52.892;6.148;2023-06-19T04:12:22;6.90;;;4.28;;
52434;SDS011;38354;52.892;6.148;2023-06-19T04:14:47;5.97;;;4.25;;
52434;SDS011;38354;52.892;6.148;2023-06-19T04:17:13;4.90;;;3.90;;
52434;SDS011;38354;52.892;6.148;2023-06-19T04:19:40;5.68;;;4.10;;
52434;SDS011;38354;52.892;6.148;2023-06-19T04:22:06;7.35;;;4.25;;
52434;SDS011;38354;52.892;6.148;2023-06-19T04:24:32;6.95;;;3.72;;
52434;SDS011;38354;52.892;6.148;2023-06-19T04:26:58;5.57;;;4.20;;
52434;SDS011;38354;52.892;6.148;2023-06-19T04:29:24;6.45;;;4.20;;
52434;SDS011;38354;52.892;6.148;2023-06-19T04:31:49;6.75;;;4.18;;
52434;SDS011;38354;52.892;6.148;2023-06-19T04:34:18;7.32;;;4.70;;
52434;SDS011;38354;52.892;6.148;2023-06-19T04:36:47;6.07;;;4.43;;
52434;SDS011;38354;52.892;6.148;2023-06-19T04:39:13;7.53;;;4.88;;
52434;SDS011;38354;52.892;6.148;2023-06-19T04:41:40;6.20;;;4.70;;
52434;SDS011;38354;52.892;6.148;2023-06-19T04:44:08;7.50;;;5.00;;
52434;SDS011;38354;52.892;6.148;2023-06-19T04:46:37;6.70;;;5.25;;
52434;SDS011;38354;52.892;6.148;2023-06-19T04:49:03;6.25;;;4.68;;
52434;SDS011;38354;52.892;6.148;2023-06-19T04:51:32;5.32;;;4.55;;
52434;SDS011;38354;52.892;6.148;2023-06-19T04:53:59;8.73;;;4.68;;
52434;SDS011;38354;52.892;6.148;2023-06-19T04:56:25;9.13;;;4.93;;
52434;SDS011;38354;52.892;6.148;2023-06-19T04:58:51;7.47;;;4.30;;
52434;SDS011;38354;52.892;6.148;2023-06-19T05:01:16;6.32;;;4.82;;
52434;SDS011;38354;52.892;6.148;2023-06-19T05:03:43;8.35;;;5.57;;
52434;SDS011;38354;52.892;6.148;2023-06-19T05:06:11;5.65;;;4.60;;
52434;SDS011;38354;52.892;6.148;2023-06-19T05:08:37;7.13;;;5.00;;
52434;SDS011;38354;52.892;6.148;2023-06-19T05:11:03;7.90;;;5.32;;
52434;SDS011;38354;52.892;6.148;2023-06-19T05:13:28;8.85;;;5.32;;
52434;SDS011;38354;52.892;6.148;2023-06-19T05:15:54;8.57;;;5.18;;
52434;SDS011;38354;52.892;6.148;2023-06-19T05:18:23;7.57;;;5.50;;
52434;SDS011;38354;52.892;6.148;2023-06-19T05:20:49;9.45;;;6.38;;
52434;SDS011;38354;52.892;6.148;2023-06-19T05:23:14;7.90;;;5.65;;
52434;SDS011;38354;52.892;6.148;2023-06-19T05:25:40;9.23;;;6.00;;
52434;SDS011;38354;52.892;6.148;2023-06-19T05:28:07;6.32;;;5.07;;
52434;SDS011;38354;52.892;6.148;2023-06-19T05:30:33;9.45;;;6.15;;
52434;SDS011;38354;52.892;6.148;2023-06-19T05:33:00;8.02;;;6.38;;
52434;SDS011;38354;52.892;6.148;2023-06-19T05:35:25;9.63;;;7.22;;
52434;SDS011;38354;52.892;6.148;2023-06-19T05:37:51;12.75;;;7.97;;
52434;SDS011;38354;52.892;6.148;2023-06-19T05:40:17;9.93;;;7.45;;
52434;SDS011;38354;52.892;6.148;2023-06-19T05:42:43;10.13;;;7.93;;
52434;SDS011;38354;52.892;6.148;2023-06-19T05:45:08;10.43;;;8.15;;
52434;SDS011;38354;52.892;6.148;2023-06-19T05:47:34;12.52;;;8.75;;
52434;SDS011;38354;52.892;6.148;2023-06-19T05:50:00;10.70;;;7.65;;
52434;SDS011;38354;52.892;6.148;2023-06-19T05:52:26;8.52;;;6.78;;
52434;SDS011;38354;52.892;6.148;2023-06-19T05:54:52;6.90;;;6.20;;
52434;SDS011;38354;52.892;6.148;2023-06-19T05:57:19;7.78;;;5.72;;
52434;SDS011;38354;52.892;6.148;2023-06-19T05:59:49;8.18;;;6.03;;
52434;SDS011;38354;52.892;6.148;2023-06-19T06:02:16;7.65;;;6.53;;
52434;SDS011;38354;52.892;6.148;2023-06-19T06:04:43;8.43;;;6.65;;
52434;SDS011;38354;52.892;6.148;2023-06-19T06:07:09;7.82;;;6.90;;
52434;SDS011;38354;52.892;6.148;2023-06-19T06:09:35;8.50;;;6.95;;
52434;SDS011;38354;52.892;6.148;2023-06-19T06:12:01;10.75;;;8.50;;
52434;SDS011;38354;52.892;6.148;2023-06-19T06:14:26;11.95;;;9.95;;
52434;SDS011;38354;52.892;6.148;2023-06-19T06:16:52;13.45;;;9.75;;
52434;SDS011;38354;52.892;6.148;2023-06-19T06:19:21;13.38;;;10.93;;
52434;SDS011;38354;52.892;6.148;2023-06-19T06:21:51;14.80;;;11.40;;
52434;SDS011;38354;52.892;6.148;2023-06-19T06:24:16;14.55;;;12.15;;
52434;SDS011;38354;52.892;6.148;2023-06-19T06:26:42;16.52;;;13.50;;
52434;SDS011;38354;52.892;6.148;2023-06-19T06:29:08;18.17;;;14.70;;
52434;SDS011;38354;52.892;6.148;2023-06-19T06:31:34;20.02;;;16.85;;
52434;SDS011;38354;52.892;6.148;2023-06-19T06:34:00;20.05;;;16.55;;
52434;SDS011;38354;52.892;6.148;2023-06-19T06:36:25;25.77;;;17.98;;
52434;SDS011;38354;52.892;6.148;2023-06-19T06:38:51;25.35;;;19.45;;
52434;SDS011;38354;52.892;6.148;2023-06-19T06:41:17;28.63;;;19.40;;
52434;SDS011;38354;52.892;6.148;2023-06-19T06:43:42;29.10;;;21.27;;
52434;SDS011;38354;52.892;6.148;2023-06-19T06:46:08;31.23;;;21.58;;
52434;SDS011;38354;52.892;6.148;2023-06-19T06:48:35;29.02;;;20.67;;
52434;SDS011;38354;52.892;6.148;2023-06-19T06:51:01;30.90;;;21.05;;
52434;SDS011;38354;52.892;6.148;2023-06-19T06:53:27;29.73;;;20.33;;
52434;SDS011;38354;52.892;6.148;2023-06-19T06:55:54;26.23;;;19.58;;
52434;SDS011;38354;52.892;6.148;2023-06-19T06:58:20;30.02;;;20.60;;
52434;SDS011;38354;52.892;6.148;2023-06-19T07:00:46;29.67;;;20.08;;
52434;SDS011;38354;52.892;6.148;2023-06-19T07:03:12;28.40;;;19.77;;
52434;SDS011;38354;52.892;6.148;2023-06-19T07:05:38;29.95;;;19.38;;
52434;SDS011;38354;52.892;6.148;2023-06-19T07:08:04;28.40;;;19.50;;
52434;SDS011;38354;52.892;6.148;2023-06-19T07:10:30;26.63;;;17.48;;
52434;SDS011;38354;52.892;6.148;2023-06-19T07:12:56;24.67;;;17.27;;
52434;SDS011;38354;52.892;6.148;2023-06-19T07:15:22;25.52;;;17.38;;
52434;SDS011;38354;52.892;6.148;2023-06-19T07:17:47;23.15;;;15.98;;
52434;SDS011;38354;52.892;6.148;2023-06-19T07:20:13;22.75;;;14.40;;
52434;SDS011;38354;52.892;6.148;2023-06-19T07:22:40;17.88;;;13.15;;
52434;SDS011;38354;52.892;6.148;2023-06-19T07:25:06;18.08;;;12.57;;
52434;SDS011;38354;52.892;6.148;2023-06-19T07:27:33;15.90;;;11.18;;
52434;SDS011;38354;52.892;6.148;2023-06-19T07:29:58;14.65;;;11.10;;
52434;SDS011;38354;52.892;6.148;2023-06-19T07:32:24;15.32;;;10.95;;
52434;SDS011;38354;52.892;6.148;2023-06-19T07:34:50;15.05;;;10.65;;
52434;SDS011;38354;52.892;6.148;2023-06-19T07:37:15;13.75;;;9.77;;
52434;SDS011;38354;52.892;6.148;2023-06-19T07:39:44;13.93;;;9.60;;
52434;SDS011;38354;52.892;6.148;2023-06-19T07:42:12;11.50;;;9.13;;
52434;SDS011;38354;52.892;6.148;2023-06-19T07:44:38;12.40;;;8.52;;
52434;SDS011;38354;52.892;6.148;2023-06-19T07:47:03;11.88;;;8.35;;
52434;SDS011;38354;52.892;6.148;2023-06-19T07:49:29;12.40;;;8.52;;
52434;SDS011;38354;52.892;6.148;2023-06-19T07:51:55;10.50;;;8.13;;
52434;SDS011;38354;52.892;6.148;2023-06-19T07:54:20;11.30;;;8.57;;
52434;SDS011;38354;52.892;6.148;2023-06-19T07:56:46;9.60;;;7.68;;
52434;SDS011;38354;52.892;6.148;2023-06-19T07:59:12;9.38;;;7.40;;
52434;SDS011;38354;52.892;6.148;2023-06-19T08:01:39;9.10;;;7.20;;
52434;SDS011;38354;52.892;6.148;2023-06-19T08:04:04;8.68;;;6.60;;
52434;SDS011;38354;52.892;6.148;2023-06-19T08:06:31;11.95;;;7.78;;
52434;SDS011;38354;52.892;6.148;2023-06-19T08:08:57;9.80;;;7.20;;
52434;SDS011;38354;52.892;6.148;2023-06-19T08:11:23;10.52;;;7.55;;
52434;SDS011;38354;52.892;6.148;2023-06-19T08:13:48;9.27;;;6.43;;
52434;SDS011;38354;52.892;6.148;2023-06-19T08:16:14;9.82;;;6.50;;
52434;SDS011;38354;52.892;6.148;2023-06-19T08:18:40;10.57;;;6.95;;
52434;SDS011;38354;52.892;6.148;2023-06-19T08:21:05;10.32;;;6.65;;
52434;SDS011;38354;52.892;6.148;2023-06-19T08:23:31;9.13;;;6.65;;
52434;SDS011;38354;52.892;6.148;2023-06-19T08:25:57;10.10;;;6.43;;
52434;SDS011;38354;52.892;6.148;2023-06-19T08:28:22;9.07;;;6.30;;
52434;SDS011;38354;52.892;6.148;2023-06-19T08:30:48;12.20;;;7.32;;
52434;SDS011;38354;52.892;6.148;2023-06-19T08:33:14;11.07;;;7.80;;
52434;SDS011;38354;52.892;6.148;2023-06-19T08:35:40;11.77;;;7.78;;
52434;SDS011;38354;52.892;6.148;2023-06-19T08:38:05;11.82;;;8.25;;
52434;SDS011;38354;52.892;6.148;2023-06-19T08:40:32;16.80;;;9.00;;
52434;SDS011;38354;52.892;6.148;2023-06-19T08:42:58;13.25;;;8.55;;
52434;SDS011;38354;52.892;6.148;2023-06-19T08:45:26;15.25;;;8.50;;
52434;SDS011;38354;52.892;6.148;2023-06-19T08:48:03;14.25;;;8.40;;
52434;SDS011;38354;52.892;6.148;2023-06-19T08:50:29;14.90;;;9.52;;
52434;SDS011;38354;52.892;6.148;2023-06-19T08:52:56;17.65;;;10.80;;
52434;SDS011;38354;52.892;6.148;2023-06-19T08:55:22;17.25;;;10.95;;
52434;SDS011;38354;52.892;6.148;2023-06-19T08:57:49;17.08;;;11.88;;
52434;SDS011;38354;52.892;6.148;2023-06-19T09:00:25;16.95;;;12.25;;
52434;SDS011;38354;52.892;6.148;2023-06-19T09:02:52;16.67;;;10.68;;
52434;SDS011;38354;52.892;6.148;2023-06-19T09:05:23;20.38;;;12.77;;
52434;SDS011;38354;52.892;6.148;2023-06-19T09:07:56;18.05;;;12.23;;
52434;SDS011;38354;52.892;6.148;2023-06-19T09:10:23;17.20;;;11.93;;
52434;SDS011;38354;52.892;6.148;2023-06-19T09:12:56;17.88;;;10.60;;
52434;SDS011;38354;52.892;6.148;2023-06-19T09:15:35;16.13;;;11.50;;
52434;SDS011;38354;52.892;6.148;2023-06-19T09:18:05;17.15;;;11.80;;
52434;SDS011;38354;52.892;6.148;2023-06-19T09:20:33;17.10;;;12.48;;
52434;SDS011;38354;52.892;6.148;2023-06-19T09:23:04;17.60;;;12.25;;
52434;SDS011;38354;52.892;6.148;2023-06-19T09:25:30;20.83;;;12.57;;
52434;SDS011;38354;52.892;6.148;2023-06-19T09:27:56;19.85;;;13.07;;
52434;SDS011;38354;52.892;6.148;2023-06-19T09:30:22;19.55;;;13.85;;
52434;SDS011;38354;52.892;6.148;2023-06-19T09:32:48;20.50;;;14.25;;
52434;SDS011;38354;52.892;6.148;2023-06-19T09:35:14;20.23;;;14.20;;
52434;SDS011;38354;52.892;6.148;2023-06-19T09:37:40;19.98;;;13.63;;
52434;SDS011;38354;52.892;6.148;2023-06-19T09:40:06;19.58;;;14.80;;
52434;SDS011;38354;52.892;6.148;2023-06-19T09:42:36;22.55;;;14.88;;
52434;SDS011;38354;52.892;6.148;2023-06-19T09:45:04;20.63;;;14.15;;
52434;SDS011;38354;52.892;6.148;2023-06-19T09:47:32;22.30;;;15.65;;
52434;SDS011;38354;52.892;6.148;2023-06-19T09:50:07;20.50;;;15.38;;
52434;SDS011;38354;52.892;6.148;2023-06-19T09:52:35;21.40;;;14.75;;
52434;SDS011;38354;52.892;6.148;2023-06-19T09:55:02;25.48;;;15.50;;
52434;SDS011;38354;52.892;6.148;2023-06-19T09:57:30;21.73;;;15.00;;
52434;SDS011;38354;52.892;6.148;2023-06-19T09:59:57;19.95;;;14.82;;
52434;SDS011;38354;52.892;6.148;2023-06-19T10:02:24;19.13;;;14.15;;
52434;SDS011;38354;52.892;6.148;2023-06-19T10:04:52;20.48;;;14.43;;
52434;SDS011;38354;52.892;6.148;2023-06-19T10:07:23;17.45;;;13.95;;
52434;SDS011;38354;52.892;6.148;2023-06-19T10:10:00;17.65;;;12.80;;
52434;SDS011;38354;52.892;6.148;2023-06-19T10:12:34;18.80;;;12.60;;
52434;SDS011;38354;52.892;6.148;2023-06-19T10:15:14;19.35;;;12.10;;
52434;SDS011;38354;52.892;6.148;2023-06-19T10:17:44;14.65;;;9.52;;
52434;SDS011;38354;52.892;6.148;2023-06-19T10:20:19;11.40;;;9.47;;
52434;SDS011;38354;52.892;6.148;2023-06-19T10:22:51;17.17;;;9.57;;
52434;SDS011;38354;52.892;6.148;2023-06-19T10:25:21;13.60;;;9.63;;
52434;SDS011;38354;52.892;6.148;2023-06-19T10:27:48;13.55;;;9.38;;
52434;SDS011;38354;52.892;6.148;2023-06-19T10:30:17;13.00;;;10.48;;
52434;SDS011;38354;52.892;6.148;2023-06-19T10:32:46;13.45;;;9.77;;
52434;SDS011;38354;52.892;6.148;2023-06-19T10:35:13;16.38;;;10.38;;
52434;SDS011;38354;52.892;6.148;2023-06-19T10:37:40;16.55;;;10.63;;
52434;SDS011;38354;52.892;6.148;2023-06-19T10:40:06;12.90;;;10.27;;
52434;SDS011;38354;52.892;6.148;2023-06-19T10:42:42;15.05;;;10.52;;
52434;SDS011;38354;52.892;6.148;2023-06-19T10:45:09;16.00;;;11.02;;
52434;SDS011;38354;52.892;6.148;2023-06-19T10:47:40;15.95;;;11.27;;
52434;SDS011;38354;52.892;6.148;2023-06-19T10:50:13;22.13;;;12.13;;
52434;SDS011;38354;52.892;6.148;2023-06-19T10:52:43;14.55;;;11.35;;
52434;SDS011;38354;52.892;6.148;2023-06-19T10:55:10;16.20;;;11.25;;
52434;SDS011;38354;52.892;6.148;2023-06-19T10:57:36;18.65;;;11.65;;
52434;SDS011;38354;52.892;6.148;2023-06-19T11:00:03;19.50;;;12.90;;
52434;SDS011;38354;52.892;6.148;2023-06-19T11:02:41;16.45;;;12.63;;
52434;SDS011;38354;52.892;6.148;2023-06-19T11:05:11;19.98;;;13.35;;
52434;SDS011;38354;52.892;6.148;2023-06-19T11:07:37;22.83;;;13.60;;
52434;SDS011;38354;52.892;6.148;2023-06-19T11:10:03;17.77;;;13.07;;
52434;SDS011;38354;52.892;6.148;2023-06-19T11:12:30;16.30;;;12.65;;
52434;SDS011;38354;52.892;6.148;2023-06-19T11:14:58;18.02;;;13.65;;
52434;SDS011;38354;52.892;6.148;2023-06-19T11:17:24;20.38;;;14.02;;
52434;SDS011;38354;52.892;6.148;2023-06-19T11:19:50;19.35;;;12.43;;
52434;SDS011;38354;52.892;6.148;2023-06-19T11:22:16;20.48;;;12.65;;
52434;SDS011;38354;52.892;6.148;2023-06-19T11:24:45;17.50;;;12.73;;
52434;SDS011;38354;52.892;6.148;2023-06-19T11:27:19;17.42;;;11.88;;
52434;SDS011;38354;52.892;6.148;2023-06-19T11:29:55;19.02;;;13.18;;
52434;SDS011;38354;52.892;6.148;2023-06-19T11:32:31;19.33;;;13.70;;
52434;SDS011;38354;52.892;6.148;2023-06-19T11:35:07;18.15;;;12.38;;
52434;SDS011;38354;52.892;6.148;2023-06-19T11:37:37;15.40;;;11.55;;
52434;SDS011;38354;52.892;6.148;2023-06-19T11:40:06;14.88;;;10.88;;
52434;SDS011;38354;52.892;6.148;2023-06-19T11:45:29;17.83;;;12.23;;
52434;SDS011;38354;52.892;6.148;2023-06-19T11:47:54;15.25;;;11.23;;
52434;SDS011;38354;52.892;6.148;2023-06-19T11:50:25;19.25;;;12.02;;
52434;SDS011;38354;52.892;6.148;2023-06-19T11:52:51;16.83;;;11.07;;
52434;SDS011;38354;52.892;6.148;2023-06-19T11:55:18;15.50;;;11.45;;
52434;SDS011;38354;52.892;6.148;2023-06-19T11:57:43;17.77;;;11.13;;
52434;SDS011;38354;52.892;6.148;2023-06-19T12:00:15;13.20;;;10.02;;
52434;SDS011;38354;52.892;6.148;2023-06-19T12:02:43;15.52;;;10.75;;
52434;SDS011;38354;52.892;6.148;2023-06-19T12:05:09;14.68;;;11.07;;
52434;SDS011;38354;52.892;6.148;2023-06-19T12:07:36;14.35;;;10.68;;
52434;SDS011;38354;52.892;6.148;2023-06-19T12:10:02;19.13;;;9.98;;
52434;SDS011;38354;52.892;6.148;2023-06-19T12:12:29;13.07;;;9.88;;
52434;SDS011;38354;52.892;6.148;2023-06-19T12:14:56;15.85;;;11.05;;
52434;SDS011;38354;52.892;6.148;2023-06-19T12:17:21;16.08;;;10.15;;
52434;SDS011;38354;52.892;6.148;2023-06-19T12:19:47;15.75;;;10.50;;
52434;SDS011;38354;52.892;6.148;2023-06-19T12:22:13;16.63;;;11.65;;
52434;SDS011;38354;52.892;6.148;2023-06-19T12:24:39;18.33;;;12.63;;
52434;SDS011;38354;52.892;6.148;2023-06-19T12:27:05;17.00;;;11.02;;
52434;SDS011;38354;52.892;6.148;2023-06-19T12:29:31;14.93;;;11.15;;
52434;SDS011;38354;52.892;6.148;2023-06-19T12:32:00;14.73;;;10.50;;
52434;SDS011;38354;52.892;6.148;2023-06-19T12:34:27;18.15;;;10.98;;
52434;SDS011;38354;52.892;6.148;2023-06-19T12:36:53;16.00;;;10.93;;
52434;SDS011;38354;52.892;6.148;2023-06-19T12:39:20;15.93;;;10.40;;
52434;SDS011;38354;52.892;6.148;2023-06-19T12:41:45;14.23;;;10.77;;
52434;SDS011;38354;52.892;6.148;2023-06-19T12:44:11;15.05;;;11.07;;
52434;SDS011;38354;52.892;6.148;2023-06-19T12:46:37;16.60;;;10.88;;
52434;SDS011;38354;52.892;6.148;2023-06-19T12:49:04;14.02;;;10.18;;
52434;SDS011;38354;52.892;6.148;2023-06-19T12:51:30;14.60;;;9.68;;
52434;SDS011;38354;52.892;6.148;2023-06-19T12:53:56;14.07;;;8.98;;
52434;SDS011;38354;52.892;6.148;2023-06-19T12:56:21;14.23;;;9.32;;
52434;SDS011;38354;52.892;6.148;2023-06-19T12:58:47;13.68;;;9.52;;
52434;SDS011;38354;52.892;6.148;2023-06-19T13:01:12;16.45;;;9.20;;
52434;SDS011;38354;52.892;6.148;2023-06-19T13:03:38;11.85;;;8.73;;
52434;SDS011;38354;52.892;6.148;2023-06-19T13:06:04;13.07;;;8.35;;
52434;SDS011;38354;52.892;6.148;2023-06-19T13:08:29;11.38;;;8.65;;
52434;SDS011;38354;52.892;6.148;2023-06-19T13:10:55;13.18;;;9.20;;
52434;SDS011;38354;52.892;6.148;2023-06-19T13:13:20;16.48;;;10.30;;
52434;SDS011;38354;52.892;6.148;2023-06-19T13:15:46;14.77;;;9.15;;
52434;SDS011;38354;52.892;6.148;2023-06-19T13:18:12;11.93;;;8.00;;
52434;SDS011;38354;52.892;6.148;2023-06-19T13:20:37;12.63;;;9.18;;
52434;SDS011;38354;52.892;6.148;2023-06-19T13:23:03;12.48;;;8.43;;
52434;SDS011;38354;52.892;6.148;2023-06-19T13:25:29;12.35;;;8.05;;
52434;SDS011;38354;52.892;6.148;2023-06-19T13:27:54;13.82;;;9.15;;
52434;SDS011;38354;52.892;6.148;2023-06-19T13:30:20;15.70;;;8.20;;
52434;SDS011;38354;52.892;6.148;2023-06-19T13:32:45;16.02;;;8.15;;
52434;SDS011;38354;52.892;6.148;2023-06-19T13:35:11;13.75;;;7.40;;
52434;SDS011;38354;52.892;6.148;2023-06-19T13:37:37;10.88;;;6.72;;
52434;SDS011;38354;52.892;6.148;2023-06-19T13:40:06;9.35;;;6.22;;
52434;SDS011;38354;52.892;6.148;2023-06-19T13:42:34;10.32;;;5.88;;
52434;SDS011;38354;52.892;6.148;2023-06-19T13:45:00;10.80;;;6.90;;
52434;SDS011;38354;52.892;6.148;2023-06-19T13:47:27;9.95;;;7.35;;
52434;SDS011;38354;52.892;6.148;2023-06-19T13:49:52;12.30;;;7.10;;
52434;SDS011;38354;52.892;6.148;2023-06-19T13:52:18;14.07;;;7.43;;
52434;SDS011;38354;52.892;6.148;2023-06-19T13:54:44;13.85;;;7.53;;
52434;SDS011;38354;52.892;6.148;2023-06-19T13:57:09;9.77;;;6.25;;
52434;SDS011;38354;52.892;6.148;2023-06-19T13:59:35;9.73;;;6.75;;
52434;SDS011;38354;52.892;6.148;2023-06-19T14:02:01;8.88;;;6.15;;
52434;SDS011;38354;52.892;6.148;2023-06-19T14:04:27;9.27;;;5.90;;
52434;SDS011;38354;52.892;6.148;2023-06-19T14:06:53;12.48;;;7.72;;
52434;SDS011;38354;52.892;6.148;2023-06-19T14:09:20;10.32;;;6.80;;
52434;SDS011;38354;52.892;6.148;2023-06-19T14:11:45;8.85;;;5.82;;
52434;SDS011;38354;52.892;6.148;2023-06-19T14:14:11;11.82;;;6.75;;
52434;SDS011;38354;52.892;6.148;2023-06-19T14:16:37;6.80;;;5.32;;
52434;SDS011;38354;52.892;6.148;2023-06-19T14:19:02;8.73;;;5.35;;
52434;SDS011;38354;52.892;6.148;2023-06-19T14:21:28;10.52;;;6.60;;
52434;SDS011;38354;52.892;6.148;2023-06-19T14:23:54;10.73;;;6.05;;
52434;SDS011;38354;52.892;6.148;2023-06-19T14:26:19;10.27;;;5.72;;
52434;SDS011;38354;52.892;6.148;2023-06-19T14:28:46;7.07;;;5.43;;
52434;SDS011;38354;52.892;6.148;2023-06-19T14:31:12;10.02;;;5.03;;
52434;SDS011;38354;52.892;6.148;2023-06-19T14:33:37;8.40;;;5.95;;
52434;SDS011;38354;52.892;6.148;2023-06-19T14:36:03;8.60;;;5.72;;
52434;SDS011;38354;52.892;6.148;2023-06-19T14:38:29;10.23;;;6.50;;
52434;SDS011;38354;52.892;6.148;2023-06-19T14:40:59;9.43;;;5.78;;
52434;SDS011;38354;52.892;6.148;2023-06-19T14:43:28;11.35;;;5.15;;
52434;SDS011;38354;52.892;6.148;2023-06-19T14:45:54;10.85;;;6.00;;
52434;SDS011;38354;52.892;6.148;2023-06-19T14:48:20;9.45;;;5.55;;
52434;SDS011;38354;52.892;6.148;2023-06-19T14:50:46;9.38;;;5.38;;
52434;SDS011;38354;52.892;6.148;2023-06-19T14:53:11;11.55;;;6.32;;
52434;SDS011;38354;52.892;6.148;2023-06-19T14:55:37;8.25;;;5.78;;
52434;SDS011;38354;52.892;6.148;2023-06-19T14:58:08;12.10;;;6.38;;
52434;SDS011;38354;52.892;6.148;2023-06-19T15:00:33;10.60;;;6.53;;
52434;SDS011;38354;52.892;6.148;2023-06-19T15:03:03;9.55;;;6.60;;
52434;SDS011;38354;52.892;6.148;2023-06-19T15:05:29;8.30;;;5.18;;
52434;SDS011;38354;52.892;6.148;2023-06-19T15:07:55;8.90;;;5.82;;
52434;SDS011;38354;52.892;6.148;2023-06-19T15:10:20;9.50;;;6.60;;
52434;SDS011;38354;52.892;6.148;2023-06-19T15:12:46;10.00;;;6.10;;
52434;SDS011;38354;52.892;6.148;2023-06-19T15:15:11;11.63;;;6.13;;
52434;SDS011;38354;52.892;6.148;2023-06-19T15:17:38;8.05;;;5.53;;
52434;SDS011;38354;52.892;6.148;2023-06-19T15:20:04;8.45;;;5.25;;
52434;SDS011;38354;52.892;6.148;2023-06-19T15:22:30;8.65;;;5.20;;
52434;SDS011;38354;52.892;6.148;2023-06-19T15:24:56;8.93;;;5.90;;
52434;SDS011;38354;52.892;6.148;2023-06-19T15:27:21;7.65;;;5.70;;
52434;SDS011;38354;52.892;6.148;2023-06-19T15:29:47;9.80;;;5.82;;
52434;SDS011;38354;52.892;6.148;2023-06-19T15:32:13;8.48;;;5.20;;
52434;SDS011;38354;52.892;6.148;2023-06-19T15:34:38;10.00;;;5.93;;
52434;SDS011;38354;52.892;6.148;2023-06-19T15:37:05;8.82;;;5.18;;
52434;SDS011;38354;52.892;6.148;2023-06-19T15:39:31;10.00;;;5.40;;
52434;SDS011;38354;52.892;6.148;2023-06-19T15:41:57;7.38;;;4.63;;
52434;SDS011;38354;52.892;6.148;2023-06-19T15:44:22;9.85;;;5.28;;
52434;SDS011;38354;52.892;6.148;2023-06-19T15:46:48;7.35;;;4.75;;
52434;SDS011;38354;52.892;6.148;2023-06-19T15:49:13;6.80;;;4.72;;
52434;SDS011;38354;52.892;6.148;2023-06-19T15:51:40;9.02;;;4.70;;
52434;SDS011;38354;52.892;6.148;2023-06-19T15:54:06;7.65;;;5.13;;
52434;SDS011;38354;52.892;6.148;2023-06-19T15:56:31;8.18;;;4.63;;
52434;SDS011;38354;52.892;6.148;2023-06-19T15:58:57;7.30;;;4.70;;
52434;SDS011;38354;52.892;6.148;2023-06-19T16:01:23;7.97;;;4.70;;
52434;SDS011;38354;52.892;6.148;2023-06-19T16:03:48;9.15;;;5.00;;
52434;SDS011;38354;52.892;6.148;2023-06-19T16:06:14;7.38;;;5.20;;
52434;SDS011;38354;52.892;6.148;2023-06-19T16:08:40;8.65;;;4.93;;
52434;SDS011;38354;52.892;6.148;2023-06-19T16:11:06;7.78;;;4.82;;
52434;SDS011;38354;52.892;6.148;2023-06-19T16:13:32;9.40;;;5.28;;
52434;SDS011;38354;52.892;6.148;2023-06-19T16:15:57;8.30;;;4.80;;
52434;SDS011;38354;52.892;6.148;2023-06-19T16:18:23;6.47;;;4.30;;
52434;SDS011;38354;52.892;6.148;2023-06-19T16:20:49;6.30;;;4.63;;
52434;SDS011;38354;52.892;6.148;2023-06-19T16:23:14;9.35;;;4.68;;
52434;SDS011;38354;52.892;6.148;2023-06-19T16:25:40;8.60;;;5.18;;
52434;SDS011;38354;52.892;6.148;2023-06-19T16:28:05;11.45;;;5.95;;
52434;SDS011;38354;52.892;6.148;2023-06-19T16:30:31;10.40;;;6.10;;
52434;SDS011;38354;52.892;6.148;2023-06-19T16:32:57;7.28;;;5.07;;
52434;SDS011;38354;52.892;6.148;2023-06-19T16:35:23;7.90;;;5.10;;
52434;SDS011;38354;52.892;6.148;2023-06-19T16:37:49;7.07;;;5.40;;
52434;SDS011;38354;52.892;6.148;2023-06-19T16:40:19;8.05;;;5.32;;
52434;SDS011;38354;52.892;6.148;2023-06-19T16:42:45;10.25;;;5.22;;
52434;SDS011;38354;52.892;6.148;2023-06-19T16:45:11;9.77;;;5.28;;
52434;SDS011;38354;52.892;6.148;2023-06-19T16:47:37;9.15;;;5.65;;
52434;SDS011;38354;52.892;6.148;2023-06-19T16:50:02;10.95;;;5.43;;
52434;SDS011;38354;52.892;6.148;2023-06-19T16:52:28;7.10;;;5.05;;
52434;SDS011;38354;52.892;6.148;2023-06-19T16:54:54;7.65;;;4.90;;
52434;SDS011;38354;52.892;6.148;2023-06-19T16:57:19;8.02;;;5.07;;
52434;SDS011;38354;52.892;6.148;2023-06-19T16:59:45;9.98;;;5.32;;
52434;SDS011;38354;52.892;6.148;2023-06-19T17:02:11;8.55;;;5.00;;
52434;SDS011;38354;52.892;6.148;2023-06-19T17:04:36;10.18;;;5.40;;
52434;SDS011;38354;52.892;6.148;2023-06-19T17:07:03;7.35;;;5.25;;
52434;SDS011;38354;52.892;6.148;2023-06-19T17:09:29;9.57;;;5.18;;
52434;SDS011;38354;52.892;6.148;2023-06-19T17:11:55;9.43;;;5.53;;
52434;SDS011;38354;52.892;6.148;2023-06-19T17:14:20;8.52;;;5.07;;
52434;SDS011;38354;52.892;6.148;2023-06-19T17:16:46;9.73;;;5.43;;
52434;SDS011;38354;52.892;6.148;2023-06-19T17:19:12;7.60;;;5.05;;
52434;SDS011;38354;52.892;6.148;2023-06-19T17:21:37;7.28;;;4.25;;
52434;SDS011;38354;52.892;6.148;2023-06-19T17:24:03;7.85;;;4.85;;
52434;SDS011;38354;52.892;6.148;2023-06-19T17:26:29;8.48;;;4.70;;
52434;SDS011;38354;52.892;6.148;2023-06-19T17:28:55;6.90;;;4.55;;
52434;SDS011;38354;52.892;6.148;2023-06-19T17:31:20;7.13;;;4.53;;
52434;SDS011;38354;52.892;6.148;2023-06-19T17:33:46;9.18;;;5.45;;
52434;SDS011;38354;52.892;6.148;2023-06-19T17:36:11;8.75;;;5.63;;